createdAt,value
2022-12-17T00:00:34.737Z,8.57
2022-12-17T00:03:02.294Z,8.95
2022-12-17T00:05:29.834Z,8.30
2022-12-17T00:07:58.331Z,8.40
2022-12-17T00:10:27.245Z,8.90
2022-12-17T00:12:56.329Z,8.65
2022-12-17T00:15:24.099Z,9.48
2022-12-17T00:17:51.609Z,9.02
2022-12-17T00:20:19.389Z,8.80
2022-12-17T00:22:46.821Z,8.30
2022-12-17T00:25:14.400Z,8.63
2022-12-17T00:27:43.286Z,9.52
2022-12-17T00:30:13.549Z,8.02
2022-12-17T00:32:41.201Z,8.27
2022-12-17T00:35:08.978Z,8.48
2022-12-17T00:37:40.355Z,8.63
2022-12-17T00:40:09.324Z,8.55
2022-12-17T00:42:37.298Z,8.68
2022-12-17T00:45:07.380Z,8.95
2022-12-17T00:47:34.829Z,8.68
2022-12-17T00:50:02.235Z,7.93
2022-12-17T00:52:29.713Z,7.55
2022-12-17T00:54:57.133Z,7.82
2022-12-17T00:57:24.555Z,8.15
2022-12-17T00:59:54.081Z,7.93
2022-12-17T01:02:26.306Z,7.82
2022-12-17T01:04:54.312Z,7.40
2022-12-17T01:07:21.854Z,7.43
2022-12-17T01:09:49.311Z,7.70
2022-12-17T01:12:16.743Z,7.50
2022-12-17T01:14:44.702Z,7.50
2022-12-17T01:17:12.422Z,7.10
2022-12-17T01:19:41.798Z,7.50
2022-12-17T01:22:09.761Z,7.57
2022-12-17T01:24:37.252Z,7.70
2022-12-17T01:27:06.133Z,7.23
2022-12-17T01:29:34.886Z,7.67
2022-12-17T01:32:03.331Z,7.43
2022-12-17T01:34:30.778Z,8.32
2022-12-17T01:36:59.649Z,7.90
2022-12-17T01:39:27.316Z,7.65
2022-12-17T01:41:54.974Z,8.23
2022-12-17T01:44:47.862Z,7.32
2022-12-17T01:47:15.509Z,8.40
2022-12-17T01:49:43.020Z,8.57
2022-12-17T01:52:15.097Z,8.20
2022-12-17T01:54:48.999Z,7.72
2022-12-17T01:57:17.154Z,7.70
2022-12-17T01:59:49.365Z,7.63
2022-12-17T02:02:17.043Z,7.82
2022-12-17T02:04:45.226Z,7.50
2022-12-17T02:07:24.975Z,7.97
2022-12-17T02:10:00.697Z,7.07
2022-12-17T02:12:34.681Z,7.70
2022-12-17T02:15:12.543Z,7.78
2022-12-17T02:17:44.213Z,7.45
2022-12-17T02:20:24.539Z,8.50
2022-12-17T02:23:05.138Z,7.85
2022-12-17T02:25:43.005Z,7.45
2022-12-17T02:28:13.381Z,7.63
2022-12-17T02:33:09.300Z,7.57
2022-12-17T02:35:42.421Z,6.72
2022-12-17T02:38:18.599Z,7.90
2022-12-17T02:40:47.394Z,8.88
2022-12-17T02:43:17.333Z,8.00
2022-12-17T02:45:47.125Z,8.02
2022-12-17T02:48:14.735Z,7.47
2022-12-17T02:50:44.044Z,7.65
2022-12-17T02:53:12.865Z,7.43
2022-12-17T02:55:40.347Z,7.82
2022-12-17T02:58:08.183Z,8.10
2022-12-17T03:00:37.386Z,7.90
2022-12-17T03:03:05.030Z,8.43
2022-12-17T03:05:47.789Z,8.65
2022-12-17T03:08:15.545Z,8.07
2022-12-17T03:10:43.058Z,9.10
2022-12-17T03:13:10.594Z,7.95
2022-12-17T03:15:40.463Z,9.13
2022-12-17T03:18:07.904Z,8.82
2022-12-17T03:20:35.414Z,8.65
2022-12-17T03:23:05.270Z,8.20
2022-12-17T03:25:32.689Z,8.13
2022-12-17T03:28:04.293Z,9.18
2022-12-17T03:30:35.769Z,7.93
2022-12-17T03:33:08.448Z,8.75
2022-12-17T03:35:36.009Z,9.43
2022-12-17T03:38:07.902Z,8.77
2022-12-17T03:40:35.542Z,9.38
2022-12-17T03:43:06.607Z,10.23
2022-12-17T03:45:34.616Z,11.10
2022-12-17T03:48:08.847Z,10.30
2022-12-17T03:50:36.412Z,10.20
2022-12-17T03:53:05.222Z,9.77
2022-12-17T03:55:33.217Z,9.32
2022-12-17T03:58:01.544Z,8.65
2022-12-17T04:00:30.644Z,9.73
2022-12-17T04:02:58.699Z,10.10
2022-12-17T04:05:28.445Z,10.48
2022-12-17T04:07:56.401Z,9.48
2022-12-17T04:10:23.882Z,9.73
2022-12-17T04:12:51.565Z,8.90
2022-12-17T04:15:19.262Z,10.18
2022-12-17T04:17:46.896Z,9.63
2022-12-17T04:20:14.590Z,9.30
2022-12-17T04:22:43.824Z,9.68
2022-12-17T04:25:11.405Z,8.80
2022-12-17T04:27:38.882Z,9.13
2022-12-17T04:30:07.328Z,7.90
2022-12-17T04:32:35.514Z,8.95
2022-12-17T04:35:03.121Z,9.57
2022-12-17T04:37:30.662Z,10.23
2022-12-17T04:40:00.196Z,12.57
2022-12-17T04:42:27.741Z,10.00
2022-12-17T04:44:55.226Z,9.65
2022-12-17T04:47:22.693Z,9.93
2022-12-17T04:49:51.134Z,9.07
2022-12-17T04:52:18.916Z,10.20
2022-12-17T04:54:46.357Z,9.75
2022-12-17T04:57:15.309Z,10.20
2022-12-17T04:59:42.853Z,9.57
2022-12-17T05:02:10.530Z,9.73
2022-12-17T05:04:38.115Z,9.05
2022-12-17T05:07:05.696Z,9.27
2022-12-17T05:09:33.124Z,9.75
2022-12-17T05:12:00.642Z,8.27
2022-12-17T05:14:30.422Z,7.70
2022-12-17T05:19:25.499Z,8.82
2022-12-17T05:21:56.508Z,9.20
2022-12-17T05:24:24.778Z,8.10
2022-12-17T05:26:52.350Z,7.95
2022-12-17T05:29:20.605Z,7.55
2022-12-17T05:31:49.596Z,10.25
2022-12-17T05:34:17.114Z,10.23
2022-12-17T05:36:44.596Z,10.65
2022-12-17T05:39:12.185Z,10.40
2022-12-17T05:41:39.640Z,9.07
2022-12-17T05:44:07.106Z,9.32
2022-12-17T05:46:34.641Z,9.95
2022-12-17T05:49:03.611Z,10.15
2022-12-17T05:51:33.505Z,10.90
2022-12-17T05:54:04.931Z,10.38
2022-12-17T05:56:32.405Z,10.20
2022-12-17T05:59:00.107Z,11.43
2022-12-17T06:01:27.668Z,11.00
2022-12-17T06:03:55.554Z,12.27
2022-12-17T06:06:25.054Z,11.52
2022-12-17T06:08:52.606Z,11.07
2022-12-17T06:11:20.314Z,12.00
2022-12-17T06:13:48.285Z,12.13
2022-12-17T06:16:15.794Z,10.15
2022-12-17T06:18:43.352Z,11.48
2022-12-17T06:21:10.780Z,11.80
2022-12-17T06:23:39.745Z,11.57
2022-12-17T06:26:07.321Z,12.82
2022-12-17T06:28:34.755Z,13.43
2022-12-17T06:31:02.274Z,12.57
2022-12-17T06:33:30.126Z,14.80
2022-12-17T06:35:59.384Z,12.60
2022-12-17T06:38:27.056Z,11.48
2022-12-17T06:40:56.013Z,11.77
2022-12-17T06:43:23.622Z,12.52
2022-12-17T06:45:52.637Z,11.20
2022-12-17T06:48:20.189Z,13.35
2022-12-17T06:50:47.706Z,14.15
2022-12-17T06:53:15.236Z,10.10
2022-12-17T06:55:42.710Z,12.77
2022-12-17T06:58:11.656Z,13.30
2022-12-17T07:00:39.193Z,12.85
2022-12-17T07:03:10.138Z,13.18
2022-12-17T07:05:42.287Z,11.93
2022-12-17T07:08:09.797Z,11.27
2022-12-17T07:10:37.732Z,13.10
2022-12-17T07:13:06.430Z,12.18
2022-12-17T07:15:35.453Z,10.00
2022-12-17T07:18:04.749Z,8.25
2022-12-17T07:20:32.377Z,8.38
2022-12-17T07:23:00.382Z,8.85
2022-12-17T07:25:27.889Z,9.90
2022-12-17T07:27:55.776Z,9.95
2022-12-17T07:30:23.338Z,9.48
2022-12-17T07:33:00.182Z,10.00
2022-12-17T07:35:27.765Z,9.05
2022-12-17T07:38:01.637Z,9.00
2022-12-17T07:40:29.227Z,8.70
2022-12-17T07:42:56.760Z,9.20
2022-12-17T07:45:24.905Z,9.60
2022-12-17T07:47:54.001Z,9.63
2022-12-17T07:50:23.116Z,8.73
2022-12-17T07:52:59.462Z,8.55
2022-12-17T07:55:27.031Z,9.38
2022-12-17T07:58:01.622Z,9.07
2022-12-17T08:00:29.185Z,7.53
2022-12-17T08:02:59.777Z,7.70
2022-12-17T08:05:28.956Z,8.18
2022-12-17T08:07:56.446Z,7.32
2022-12-17T08:10:23.975Z,7.47
2022-12-17T08:12:55.404Z,8.32
2022-12-17T08:15:22.893Z,7.85
2022-12-17T08:17:50.406Z,7.82
2022-12-17T08:20:18.539Z,8.02
2022-12-17T08:22:47.449Z,8.40
2022-12-17T08:25:15.005Z,9.67
2022-12-17T08:27:42.746Z,8.50
2022-12-17T08:30:10.972Z,8.52
2022-12-17T08:32:38.625Z,8.77
2022-12-17T08:35:06.839Z,7.97
2022-12-17T08:37:34.431Z,8.23
2022-12-17T08:40:03.783Z,7.45
2022-12-17T08:42:31.307Z,8.20
2022-12-17T08:44:59.200Z,7.88
2022-12-17T08:47:26.923Z,7.78
2022-12-17T08:49:54.369Z,9.15
2022-12-17T08:52:22.272Z,9.88
2022-12-17T08:54:50.109Z,9.77
2022-12-17T08:57:30.606Z,9.43
2022-12-17T09:00:00.296Z,9.40
2022-12-17T09:02:28.482Z,9.23
2022-12-17T09:04:56.087Z,8.98
2022-12-17T09:07:24.066Z,8.15
2022-12-17T09:09:51.953Z,8.45
2022-12-17T09:12:21.186Z,8.10
2022-12-17T09:14:48.857Z,8.48
2022-12-17T09:17:16.377Z,8.90
2022-12-17T09:19:43.913Z,8.52
2022-12-17T09:22:11.619Z,7.75
2022-12-17T09:24:39.117Z,7.43
2022-12-17T09:27:07.060Z,7.05
2022-12-17T09:29:36.473Z,7.78
2022-12-17T09:32:05.285Z,8.52
2022-12-17T09:34:33.804Z,7.83
2022-12-17T09:37:03.103Z,8.13
2022-12-17T09:39:31.854Z,8.15
2022-12-17T09:42:09.813Z,7.43
2022-12-17T09:44:48.765Z,8.18
2022-12-17T09:47:27.072Z,7.95
2022-12-17T09:49:55.620Z,7.72
2022-12-17T09:52:26.522Z,7.68
2022-12-17T09:55:00.764Z,7.85
2022-12-17T09:57:34.023Z,7.25
2022-12-17T10:00:13.777Z,6.88
2022-12-17T10:02:41.852Z,7.43
2022-12-17T10:05:14.490Z,7.85
2022-12-17T10:07:43.924Z,8.52
2022-12-17T10:10:17.189Z,9.70
2022-12-17T10:12:44.877Z,10.50
2022-12-17T10:15:16.069Z,10.68
2022-12-17T10:17:44.060Z,9.30
2022-12-17T10:20:21.365Z,8.02
2022-12-17T10:22:50.670Z,7.28
2022-12-17T10:25:21.133Z,7.80
2022-12-17T10:27:48.754Z,8.68
2022-12-17T10:30:18.558Z,8.93
2022-12-17T10:32:55.656Z,8.60
2022-12-17T10:35:26.205Z,7.68
2022-12-17T10:37:54.244Z,7.47
2022-12-17T10:40:26.615Z,7.95
2022-12-17T10:42:54.448Z,7.90
2022-12-17T10:45:25.869Z,7.72
2022-12-17T10:47:53.389Z,7.75
2022-12-17T10:50:22.834Z,8.00
2022-12-17T10:52:50.773Z,7.47
2022-12-17T10:55:25.447Z,8.00
2022-12-17T10:57:53.181Z,7.47
2022-12-17T11:00:27.951Z,7.60
2022-12-17T11:02:55.881Z,8.30
2022-12-17T11:05:28.672Z,9.35
2022-12-17T11:07:56.388Z,7.97
2022-12-17T11:10:27.810Z,7.70
2022-12-17T11:13:00.349Z,9.85
2022-12-17T11:15:36.534Z,8.38
2022-12-17T11:18:11.117Z,7.43
2022-12-17T11:20:50.502Z,8.20
2022-12-17T11:23:20.994Z,8.73
2022-12-17T11:25:56.143Z,7.30
2022-12-17T11:28:26.052Z,8.20
2022-12-17T11:31:05.304Z,7.60
2022-12-17T11:33:39.779Z,7.95
2022-12-17T11:36:15.031Z,7.95
2022-12-17T11:38:57.340Z,7.63
2022-12-17T11:41:43.662Z,7.88
2022-12-17T11:44:28.033Z,7.45
2022-12-17T11:47:06.141Z,8.15
2022-12-17T11:49:45.342Z,8.65
2022-12-17T11:52:23.251Z,8.38
2022-12-17T11:55:03.925Z,8.18
2022-12-17T11:57:38.321Z,8.02
2022-12-17T12:00:14.196Z,8.40
2022-12-17T12:02:54.186Z,8.30
2022-12-17T12:05:29.092Z,8.30
2022-12-17T12:08:06.145Z,7.93
2022-12-17T12:10:40.074Z,9.18
2022-12-17T12:13:20.021Z,9.02
2022-12-17T12:16:00.171Z,9.20
2022-12-17T12:18:42.730Z,8.32
2022-12-17T12:21:30.506Z,8.73
2022-12-17T12:24:09.295Z,8.93
2022-12-17T12:26:45.110Z,8.52
2022-12-17T12:29:24.858Z,8.60
2022-12-17T12:32:04.106Z,8.90
2022-12-17T12:34:38.091Z,7.65
2022-12-17T12:37:06.524Z,8.00
2022-12-17T12:39:39.669Z,7.43
2022-12-17T12:42:15.117Z,7.75
2022-12-17T12:44:50.697Z,8.27
2022-12-17T12:47:23.563Z,7.70
2022-12-17T12:50:01.073Z,8.00
2022-12-17T12:52:29.622Z,8.02
2022-12-17T12:54:57.394Z,8.25
2022-12-17T12:57:32.293Z,8.20
2022-12-17T13:00:01.607Z,8.23
2022-12-17T13:02:31.490Z,8.82
2022-12-17T13:05:01.410Z,7.72
2022-12-17T13:07:30.785Z,8.13
2022-12-17T13:09:59.483Z,8.40
2022-12-17T13:12:32.009Z,8.67
2022-12-17T13:15:11.315Z,9.88
2022-12-17T13:20:28.618Z,8.27
2022-12-17T13:23:14.347Z,8.10
2022-12-17T13:25:42.334Z,8.57
2022-12-17T13:28:28.693Z,8.98
2022-12-17T13:31:13.995Z,8.60
2022-12-17T13:33:54.853Z,8.55
2022-12-17T13:36:31.484Z,9.25
2022-12-17T13:39:07.073Z,8.07
2022-12-17T13:41:36.771Z,7.90
2022-12-17T13:44:18.546Z,8.07
2022-12-17T13:46:48.317Z,7.80
2022-12-17T13:51:46.778Z,7.85
2022-12-17T13:54:17.301Z,8.15
2022-12-17T13:56:45.358Z,8.10
2022-12-17T13:59:19.131Z,7.85
2022-12-17T14:01:48.337Z,7.70
2022-12-17T14:04:24.885Z,7.63
2022-12-17T14:06:56.077Z,7.57
2022-12-17T14:09:30.990Z,7.82
2022-12-17T14:11:58.717Z,7.03
2022-12-17T14:14:31.375Z,7.30
2022-12-17T14:16:59.881Z,7.20
2022-12-17T14:19:29.923Z,7.10
2022-12-17T14:21:59.558Z,6.55
2022-12-17T14:24:28.374Z,7.07
2022-12-17T14:26:57.993Z,7.00
2022-12-17T14:31:55.760Z,6.75
2022-12-17T14:36:55.747Z,6.75
2022-12-17T14:39:28.765Z,6.95
2022-12-17T14:41:59.087Z,7.00
2022-12-17T14:44:29.295Z,6.80
2022-12-17T14:47:12.261Z,7.40
2022-12-17T14:49:58.982Z,7.00
2022-12-17T14:52:39.548Z,7.75
2022-12-17T14:55:26.355Z,7.35
2022-12-17T14:58:08.230Z,7.07
2022-12-17T15:00:38.827Z,7.78
2022-12-17T15:03:10.979Z,7.35
2022-12-17T15:05:39.096Z,7.63
2022-12-17T15:08:06.824Z,7.50
2022-12-17T15:10:35.989Z,6.82
2022-12-17T15:13:03.575Z,7.20
2022-12-17T15:15:31.269Z,7.30
2022-12-17T15:17:58.777Z,7.80
2022-12-17T15:20:26.309Z,7.80
2022-12-17T15:22:53.796Z,8.48
2022-12-17T15:25:21.450Z,9.77
2022-12-17T15:27:50.646Z,10.27
2022-12-17T15:30:20.033Z,10.25
2022-12-17T15:32:47.646Z,10.98
2022-12-17T15:35:15.330Z,13.88
2022-12-17T15:37:43.521Z,13.63
2022-12-17T15:40:11.825Z,14.52
2022-12-17T15:42:39.299Z,15.55
2022-12-17T15:45:09.344Z,16.25
2022-12-17T15:47:37.057Z,16.27
2022-12-17T15:50:05.284Z,17.33
2022-12-17T15:52:32.855Z,15.80
2022-12-17T15:55:00.328Z,17.02
2022-12-17T15:57:27.833Z,18.48
2022-12-17T15:59:56.182Z,18.35
2022-12-17T16:02:25.496Z,18.35
2022-12-17T16:04:53.429Z,19.67
2022-12-17T16:07:21.504Z,17.55
2022-12-17T16:09:49.013Z,19.27
2022-12-17T16:12:16.610Z,20.42
2022-12-17T16:14:44.085Z,20.50
2022-12-17T16:17:11.597Z,20.40
2022-12-17T16:19:40.789Z,21.40
2022-12-17T16:22:08.427Z,21.05
2022-12-17T16:24:36.005Z,20.88
2022-12-17T16:27:04.772Z,20.33
2022-12-17T16:29:32.489Z,21.30
2022-12-17T16:32:00.547Z,20.98
2022-12-17T16:34:28.454Z,21.95
2022-12-17T16:36:57.570Z,20.10
2022-12-17T16:39:26.172Z,20.83
2022-12-17T16:41:54.148Z,21.23
2022-12-17T16:44:21.914Z,21.15
2022-12-17T16:46:49.810Z,20.55
2022-12-17T16:49:19.549Z,21.85
2022-12-17T16:54:19.652Z,21.95
2022-12-17T16:56:48.135Z,21.65
2022-12-17T16:59:16.800Z,21.67
2022-12-17T17:01:46.356Z,22.27
2022-12-17T17:06:44.677Z,22.30
2022-12-17T17:09:12.970Z,22.38
2022-12-17T17:11:45.809Z,23.20
2022-12-17T17:14:17.227Z,23.52
2022-12-17T17:16:44.710Z,24.23
2022-12-17T17:19:12.581Z,23.15
2022-12-17T17:21:41.733Z,22.98
2022-12-17T17:24:20.031Z,24.73
2022-12-17T17:26:51.704Z,24.15
2022-12-17T17:29:21.316Z,25.08
2022-12-17T17:34:36.741Z,23.25
2022-12-17T17:37:04.271Z,22.95
2022-12-17T17:39:31.772Z,22.85
2022-12-17T17:42:00.913Z,22.85
2022-12-17T17:44:28.774Z,21.83
2022-12-17T17:46:56.284Z,21.15
2022-12-17T17:49:23.932Z,22.75
2022-12-17T17:54:40.147Z,21.48
2022-12-17T17:57:10.370Z,21.70
2022-12-17T17:59:38.205Z,20.08
2022-12-17T18:02:05.936Z,20.45
2022-12-17T18:04:33.741Z,20.02
2022-12-17T18:07:25.353Z,19.40
2022-12-17T18:09:48.945Z,20.35
2022-12-17T18:12:18.867Z,18.10
2022-12-17T18:17:33.716Z,17.48
2022-12-17T18:20:01.473Z,18.05
2022-12-17T18:22:29.055Z,18.73
2022-12-17T18:24:56.575Z,17.55
2022-12-17T18:27:25.586Z,16.98
2022-12-17T18:29:53.026Z,16.92
2022-12-17T18:32:21.110Z,16.92
2022-12-17T18:34:48.624Z,16.35
2022-12-17T18:37:16.223Z,16.27
2022-12-17T18:39:43.822Z,16.05
2022-12-17T18:42:11.385Z,17.42
2022-12-17T18:44:42.287Z,15.90
2022-12-17T18:47:10.776Z,15.82
2022-12-17T18:49:38.764Z,14.85
2022-12-17T18:52:07.696Z,15.00
2022-12-17T18:54:38.117Z,15.90
2022-12-17T18:57:05.617Z,15.43
2022-12-17T18:59:33.104Z,14.55
2022-12-17T19:02:02.206Z,15.38
2022-12-17T19:04:29.877Z,15.38
2022-12-17T19:06:57.385Z,14.57
2022-12-17T19:09:26.956Z,14.85
2022-12-17T19:11:55.558Z,13.68
2022-12-17T19:14:23.744Z,15.02
2022-12-17T19:16:54.664Z,14.13
2022-12-17T19:19:24.426Z,14.02
2022-12-17T19:21:53.992Z,14.23
2022-12-17T19:24:22.462Z,14.25
2022-12-17T19:26:50.354Z,13.82
2022-12-17T19:29:19.153Z,13.77
2022-12-17T19:31:47.065Z,13.40
2022-12-17T19:34:16.034Z,13.73
2022-12-17T19:36:45.662Z,13.68
2022-12-17T19:39:15.684Z,14.15
2022-12-17T19:41:43.737Z,13.57
2022-12-17T19:44:13.748Z,13.32
2022-12-17T19:46:42.300Z,14.68
2022-12-17T19:49:11.612Z,14.43
2022-12-17T19:51:39.249Z,13.95
2022-12-17T19:54:09.535Z,13.65
2022-12-17T19:56:37.333Z,13.65
2022-12-17T19:59:07.634Z,13.30
2022-12-17T20:01:37.111Z,13.48
2022-12-17T20:04:06.006Z,13.00
2022-12-17T20:06:34.976Z,13.20
2022-12-17T20:09:04.389Z,13.37
2022-12-17T20:11:33.736Z,13.05
2022-12-17T20:14:02.789Z,13.50
2022-12-17T20:16:32.344Z,12.90
2022-12-17T20:21:27.598Z,12.75
2022-12-17T20:23:55.436Z,12.43
2022-12-17T20:26:23.257Z,12.90
2022-12-17T20:28:52.249Z,12.27
2022-12-17T20:31:21.476Z,12.18
2022-12-17T20:33:49.762Z,12.30
2022-12-17T20:36:19.352Z,11.52
2022-12-17T20:38:46.942Z,11.48
2022-12-17T20:41:16.749Z,11.57
2022-12-17T20:43:44.749Z,11.88
2022-12-17T20:46:14.302Z,11.80
2022-12-17T20:51:13.476Z,11.37
2022-12-17T20:53:41.505Z,11.00
2022-12-17T20:56:11.581Z,12.15
2022-12-17T20:58:40.052Z,11.88
2022-12-17T21:01:16.527Z,11.93
2022-12-17T21:03:46.220Z,11.48
2022-12-17T21:06:15.910Z,10.93
2022-12-17T21:08:49.313Z,10.05
2022-12-17T21:11:19.760Z,11.02
2022-12-17T21:13:47.402Z,10.82
2022-12-17T21:16:18.157Z,10.73
2022-12-17T21:18:47.286Z,9.82
2022-12-17T21:21:18.026Z,10.77
2022-12-17T21:23:46.886Z,10.60
2022-12-17T21:26:16.102Z,10.53
2022-12-17T21:28:46.637Z,10.27
2022-12-17T21:31:18.657Z,10.63
2022-12-17T21:33:47.818Z,11.15
2022-12-17T21:36:17.185Z,10.98
2022-12-17T21:38:44.955Z,10.85
2022-12-17T21:41:18.247Z,11.10
2022-12-17T21:43:46.015Z,11.75
2022-12-17T21:46:13.976Z,10.68
2022-12-17T21:48:42.842Z,10.35
2022-12-17T21:51:13.249Z,11.35
2022-12-17T21:53:41.788Z,10.27
2022-12-17T21:56:11.239Z,11.15
2022-12-17T22:01:18.626Z,11.52
2022-12-17T22:03:47.233Z,10.85
2022-12-17T22:06:22.425Z,11.30
2022-12-17T22:08:52.748Z,11.20
2022-12-17T22:11:27.465Z,11.32
2022-12-17T22:16:23.721Z,11.32
2022-12-17T22:18:52.655Z,10.93
2022-12-17T22:21:22.098Z,10.80
2022-12-17T22:23:50.033Z,10.13
2022-12-17T22:26:19.739Z,10.93
2022-12-17T22:28:47.814Z,10.18
2022-12-17T22:31:16.309Z,10.88
2022-12-17T22:34:12.680Z,10.25
2022-12-17T22:37:34.345Z,10.25
2022-12-17T22:43:57.336Z,9.50
2022-12-17T22:44:49.039Z,9.60
2022-12-17T22:45:10.326Z,9.93
2022-12-17T22:47:39.367Z,9.65
2022-12-17T22:50:07.853Z,9.95
2022-12-17T22:52:37.429Z,9.98
2022-12-17T22:55:06.330Z,8.43
2022-12-17T22:57:36.869Z,9.13
2022-12-17T23:00:10.052Z,9.35
2022-12-17T23:02:37.687Z,8.43
2022-12-17T23:05:05.779Z,9.15
2022-12-17T23:07:33.806Z,8.70
2022-12-17T23:10:03.384Z,9.10
2022-12-17T23:12:30.804Z,8.93
2022-12-17T23:14:58.226Z,8.90
2022-12-17T23:17:25.804Z,8.65
2022-12-17T23:19:53.223Z,8.60
2022-12-17T23:22:22.487Z,8.65
2022-12-17T23:24:50.689Z,8.57
2022-12-17T23:27:19.628Z,8.55
2022-12-17T23:29:47.138Z,8.35
2022-12-17T23:32:14.715Z,8.18
2022-12-17T23:34:42.699Z,8.20
2022-12-17T23:37:10.244Z,8.10
2022-12-17T23:39:37.777Z,8.18
2022-12-17T23:42:05.327Z,8.07
2022-12-17T23:44:34.253Z,7.97
2022-12-17T23:47:01.750Z,7.63
2022-12-17T23:49:29.251Z,8.38
2022-12-17T23:51:56.752Z,8.07
2022-12-17T23:54:25.073Z,7.40
2022-12-17T23:56:52.513Z,7.78
2022-12-17T23:59:19.950Z,7.65
